»·PEaware :: N458WA KBLH-KPRC

N458WA :: KBLH-KPRC

FLIGHT INFORMATION

Flight Status: Arrived
Operator: Privately registered:
United States
More flights under this callsign
Pilot: Charles S. (11412)
Aircraft: BEECH AIRCRAFT BARON
(BE58)
More flights by this aircraft type
Origin: KBLH Blythe
United States
Destination: KPRC Love
United States
More flights between these airports :: More routes between these airports
Route: +
File this flight plan on PilotEdge
Remarks:
Altitude:
(Current/Filed)
7,500ft
Speed:
(Current/Filed)
115kts
Departed: 24-Nov-17 09:56 AM
Arrived: 24-Nov-17 10:44 AM
Distance/Time
Traveled:
130nm/0:48
Distance/Time
To Go:
Arrived

Flight Plot

Page will automatically refresh every two minutes.

Flight plan parsing failed; only flown route is shown


Map Options




Map Legend


Flown Route
Filed Route
Departure Airport
Arrival Airport
Navaid (VOR, NDB)
Fix

Horizontal Profiles

Position Reports

Time Latitude Longitude Heading Altitude Ground
Speed
24-Nov-17 09:56 33.614159 -114.714290 359 399ft 0kts
24-Nov-17 09:57 33.614159 -114.714290 359 399ft 0kts
24-Nov-17 09:58 33.614159 -114.714290 359 399ft 0kts
24-Nov-17 09:59 33.614982 -114.719051 267 399ft 21kts
24-Nov-17 10:00 33.614993 -114.725593 269 399ft 23kts
24-Nov-17 10:01 33.616446 -114.723371 95 399ft 76kts
24-Nov-17 10:02 33.622615 -114.686607 63 1167ft 126kts
24-Nov-17 10:03 33.640122 -114.648306 59 2436ft 141kts
24-Nov-17 10:04 33.664839 -114.604397 57 3102ft 162kts
24-Nov-17 10:05 33.682947 -114.566577 59 3773ft 162kts
24-Nov-17 10:06 33.693948 -114.543107 59 4176ft 162kts
24-Nov-17 10:07 33.715325 -114.497291 58 4931ft 161kts
24-Nov-17 10:08 33.736824 -114.451114 58 5652ft 161kts
24-Nov-17 10:09 33.758655 -114.404197 57 6346ft 161kts
24-Nov-17 10:10 33.780572 -114.357014 57 7005ft 161kts
24-Nov-17 10:11 33.802245 -114.310302 57 7615ft 162kts
24-Nov-17 10:12 33.824266 -114.262761 57 8199ft 162kts
24-Nov-17 10:13 33.846232 -114.215246 57 8745ft 163kts
24-Nov-17 10:14 33.868325 -114.167473 57 9260ft 165kts
24-Nov-17 10:15 33.891016 -114.118300 57 9523ft 178kts
24-Nov-17 10:16 33.915805 -114.064322 57 9521ft 188kts
24-Nov-17 10:17 33.941417 -114.008560 58 9524ft 191kts
24-Nov-17 10:18 33.967227 -113.952274 58 9525ft 192kts
24-Nov-17 10:19 33.993042 -113.895876 57 9525ft 193kts
24-Nov-17 10:20 34.018957 -113.839288 58 9525ft 193kts
24-Nov-17 10:21 34.044602 -113.783125 58 9526ft 193kts
24-Nov-17 10:22 34.069366 -113.728826 58 9526ft 193kts
24-Nov-17 10:23 34.095190 -113.672097 58 9526ft 193kts
24-Nov-17 10:24 34.120943 -113.615445 58 9527ft 193kts
24-Nov-17 10:25 34.146763 -113.558552 58 9527ft 193kts
24-Nov-17 10:26 34.172559 -113.501617 58 9531ft 193kts
24-Nov-17 10:27 34.198212 -113.444890 58 9560ft 192kts
24-Nov-17 10:28 34.224147 -113.387493 58 9426ft 197kts
24-Nov-17 10:29 34.249778 -113.330586 58 9465ft 191kts
24-Nov-17 10:30 34.274975 -113.274623 58 9504ft 189kts
24-Nov-17 10:31 34.300196 -113.218537 58 9507ft 190kts
24-Nov-17 10:32 34.325200 -113.162819 58 9507ft 190kts
24-Nov-17 10:33 34.347568 -113.112892 58 9507ft 190kts
24-Nov-17 10:34 34.369358 -113.064182 58 9507ft 190kts
24-Nov-17 10:35 34.391695 -113.014159 57 9507ft 190kts
24-Nov-17 10:36 34.410102 -112.972883 57 9507ft 190kts
24-Nov-17 10:37 34.435168 -112.916492 57 9507ft 190kts
24-Nov-17 10:38 34.460286 -112.859967 57 9508ft 190kts
24-Nov-17 10:39 34.485305 -112.803624 56 9508ft 190kts
24-Nov-17 10:40 34.510315 -112.747234 56 9508ft 190kts
24-Nov-17 10:41 34.535289 -112.690807 56 9508ft 190kts
24-Nov-17 10:42 34.560316 -112.634167 56 9508ft 190kts
24-Nov-17 10:43 34.584189 -112.576418 59 9014ft 194kts
24-Nov-17 10:44 34.608688 -112.516594 57 7887ft 197kts
24-Nov-17 10:45 34.639789 -112.466905 44 6700ft 175kts
24-Nov-17 10:46 34.670972 -112.426816 36 5895ft 149kts
24-Nov-17 10:47 34.685575 -112.396895 152 5504ft 121kts
24-Nov-17 10:48 34.664632 -112.412000 221 5042ft 99kts
24-Nov-17 10:49 34.656298 -112.420148 130 5042ft 0kts
24-Nov-17 10:50 34.656264 -112.420097 127 5042ft 6kts
24-Nov-17 10:51 34.654985 -112.421026 216 5042ft 13kts
24-Nov-17 10:52 34.654435 -112.422205 307 5042ft 0kts

Navigation Log

Ident Type
Flight plan parsing failed, navigation log unavailable